Time;durP1;ratioP1;P1;durP2;ratioP2;P2;SDS_P1;SDS_P2;PMS_P1;PMS_P2;Temp;Humidity;BMP_temperature;BMP_pressure;BME280_temperature;BME280_humidity;BME280_pressure;Samples;Min_cycle;Max_cycle;Signal;HPM_P1;HPM_P2
2020/12/18 00:00:24;;;;;;;1.37;0.85;;;;;;;;;;4342481;32;20051;-80
2020/12/18 00:02:52;;;;;;;8.13;1.08;;;;;;;;;;4340671;32;20055;-81
2020/12/18 00:05:20;;;;;;;1.62;0.88;;;;;;;;;;4343884;32;20133;-80
2020/12/18 00:07:49;;;;;;;1.35;1.10;;;;;;;;;;4346358;32;20078;-78
2020/12/18 00:10:18;;;;;;;1.00;0.68;;;;;;;;;;4342174;32;20333;-79
2020/12/18 00:12:47;;;;;;;5.70;1.12;;;;;;;;;;4343171;32;20157;-78
2020/12/18 00:15:15;;;;;;;2.58;0.90;;;;;;;;;;4346272;32;20471;-78
2020/12/18 00:17:43;;;;;;;5.15;0.98;;;;;;;;;;4343545;32;20119;-79
2020/12/18 00:20:11;;;;;;;2.75;1.08;;;;;;;;;;4343153;32;20107;-78
2020/12/18 00:22:39;;;;;;;2.22;0.77;;;;;;;;;;4348342;32;20055;-78
2020/12/18 00:25:08;;;;;;;2.83;1.20;;;;;;;;;;4350741;32;20078;-79
2020/12/18 00:27:38;;;;;;;2.95;1.10;;;;;;;;;;4344868;32;20170;-78
2020/12/18 00:30:08;;;;;;;5.57;1.48;;;;;;;;;;4347798;32;20289;-78
2020/12/18 00:32:37;;;;;;;1.52;0.75;;;;;;;;;;4349961;32;20677;-78
2020/12/18 00:35:06;;;;;;;8.50;1.80;;;;;;;;;;4348619;32;20095;-79
2020/12/18 00:37:34;;;;;;;0.88;0.73;;;;;;;;;;4344669;32;20114;-78
2020/12/18 00:40:04;;;;;;;1.20;0.65;;;;;;;;;;4348804;32;20492;-78
2020/12/18 00:42:32;;;;;;;5.40;1.00;;;;;;;;;;4348228;32;20107;-78
2020/12/18 00:45:01;;;;;;;3.97;1.30;;;;;;;;;;4348135;32;20446;-78
2020/12/18 00:47:29;;;;;;;3.85;0.80;;;;;;;;;;4349535;32;20123;-77
2020/12/18 00:49:57;;;;;;;3.08;0.98;;;;;;;;;;4337957;33;20059;-78
2020/12/18 00:52:26;;;;;;;1.48;0.90;;;;;;;;;;4345870;32;20069;-78
2020/12/18 00:54:54;;;;;;;2.30;1.00;;;;;;;;;;4345442;32;20119;-78
2020/12/18 00:57:24;;;;;;;14.65;1.20;;;;;;;;;;4343120;32;20126;-79
2020/12/18 00:59:53;;;;;;;2.72;1.08;;;;;;;;;;4345944;32;20102;-78
2020/12/18 01:02:24;;;;;;;3.67;1.12;;;;;;;;;;4341117;32;20093;-79
2020/12/18 01:04:53;;;;;;;5.45;1.10;;;;;;;;;;4345766;32;20175;-78
2020/12/18 01:07:21;;;;;;;1.12;0.98;;;;;;;;;;4345090;32;20119;-78
2020/12/18 01:09:50;;;;;;;2.10;0.98;;;;;;;;;;4345084;32;21080;-78
2020/12/18 01:12:18;;;;;;;4.45;0.80;;;;;;;;;;4343491;32;20078;-79
2020/12/18 01:14:53;;;;;;;3.92;0.77;;;;;;;;;;4347307;32;20524;-78
2020/12/18 01:17:22;;;;;;;3.70;0.77;;;;;;;;;;4348311;32;20110;-78
2020/12/18 01:19:51;;;;;;;1.17;0.68;;;;;;;;;;4344839;32;20055;-79
2020/12/18 01:22:19;;;;;;;2.28;0.98;;;;;;;;;;4343197;32;20102;-79
2020/12/18 01:24:48;;;;;;;5.53;1.20;;;;;;;;;;4350188;32;20076;-78
2020/12/18 01:27:17;;;;;;;2.83;0.80;;;;;;;;;;4351492;32;20101;-78
2020/12/18 01:29:45;;;;;;;0.30;0.30;;;;;;;;;;4348927;32;20080;-78
2020/12/18 01:32:15;;;;;;;4.80;1.00;;;;;;;;;;4349052;32;20055;-78
2020/12/18 01:34:45;;;;;;;4.80;0.82;;;;;;;;;;4349311;32;20065;-78
2020/12/18 01:37:15;;;;;;;1.83;0.65;;;;;;;;;;4351052;32;20461;-78
2020/12/18 01:39:45;;;;;;;0.68;0.68;;;;;;;;;;4348818;32;20148;-79
2020/12/18 01:42:17;;;;;;;1.83;0.77;;;;;;;;;;4331457;32;20122;-80
2020/12/18 01:44:46;;;;;;;3.33;1.15;;;;;;;;;;4355330;32;20052;-80
2020/12/18 01:47:23;;;;;;;1.90;0.90;;;;;;;;;;4355444;32;20044;-79
2020/12/18 01:49:52;;;;;;;4.18;0.98;;;;;;;;;;4344350;32;20085;-79
2020/12/18 01:52:24;;;;;;;2.03;1.12;;;;;;;;;;4344613;32;20109;-79
2020/12/18 01:55:02;;;;;;;10.02;1.20;;;;;;;;;;4346072;32;20546;-79
2020/12/18 01:57:32;;;;;;;1.75;0.90;;;;;;;;;;4347360;32;20441;-79
2020/12/18 02:00:01;;;;;;;9.73;0.62;;;;;;;;;;4343250;32;20051;-81
2020/12/18 02:02:41;;;;;;;17.90;1.35;;;;;;;;;;4346769;32;20119;-79
2020/12/18 02:05:10;;;;;;;4.37;1.08;;;;;;;;;;4352948;32;20060;-79
2020/12/18 02:07:44;;;;;;;2.97;0.88;;;;;;;;;;4351782;32;20092;-80
2020/12/18 02:10:16;;;;;;;0.40;0.40;;;;;;;;;;4341997;32;20237;-80
2020/12/18 02:12:53;;;;;;;0.50;0.50;;;;;;;;;;4344600;32;20441;-80
2020/12/18 02:15:22;;;;;;;1.10;0.75;;;;;;;;;;4349720;32;20066;-80
2020/12/18 02:17:55;;;;;;;11.12;1.48;;;;;;;;;;4351840;32;20064;-79
2020/12/18 02:20:26;;;;;;;0.75;0.60;;;;;;;;;;4344368;32;20110;-80
2020/12/18 02:22:55;;;;;;;4.43;1.23;;;;;;;;;;4348149;32;20056;-80
2020/12/18 02:25:24;;;;;;;5.18;1.15;;;;;;;;;;4350998;32;20470;-80
2020/12/18 02:27:53;;;;;;;1.75;1.02;;;;;;;;;;4345674;32;20189;-80
2020/12/18 02:30:21;;;;;;;4.25;0.62;;;;;;;;;;4350103;32;20099;-80
2020/12/18 02:32:51;;;;;;;0.73;0.73;;;;;;;;;;4351049;32;20107;-79
2020/12/18 02:35:19;;;;;;;2.70;0.60;;;;;;;;;;4347927;32;20419;-80
2020/12/18 02:37:48;;;;;;;1.42;0.73;;;;;;;;;;4347175;32;20125;-80
2020/12/18 02:40:17;;;;;;;1.02;0.50;;;;;;;;;;4346634;32;20142;-81
2020/12/18 02:42:48;;;;;;;3.20;0.70;;;;;;;;;;4344361;32;20128;-80
2020/12/18 02:45:16;;;;;;;7.00;1.90;;;;;;;;;;4344884;32;20440;-80
2020/12/18 02:47:47;;;;;;;1.17;0.82;;;;;;;;;;4349695;32;20064;-80
2020/12/18 02:50:17;;;;;;;2.78;1.37;;;;;;;;;;4349142;32;20056;-80
2020/12/18 02:52:46;;;;;;;5.78;0.98;;;;;;;;;;4342859;32;20580;-81
2020/12/18 02:55:15;;;;;;;1.12;1.02;;;;;;;;;;4343330;32;20439;-80
2020/12/18 02:57:44;;;;;;;5.37;1.85;;;;;;;;;;4342899;32;20067;-80
2020/12/18 03:00:13;;;;;;;0.68;0.68;;;;;;;;;;4342560;32;20875;-80
2020/12/18 03:02:42;;;;;;;0.85;0.60;;;;;;;;;;4345937;32;20069;-80
2020/12/18 03:05:11;;;;;;;1.58;0.60;;;;;;;;;;4347471;33;20103;-80
2020/12/18 03:07:40;;;;;;;3.37;1.52;;;;;;;;;;4349310;32;20055;-80
2020/12/18 03:10:15;;;;;;;2.33;0.85;;;;;;;;;;4345656;32;20097;-81
2020/12/18 03:13:00;;;;;;;2.33;1.00;;;;;;;;;;4342230;32;20138;-93
2020/12/18 03:15:32;;;;;;;0.57;0.43;;;;;;;;;;4313958;32;20080;-94
2020/12/18 03:18:14;;;;;;;4.30;1.10;;;;;;;;;;4330835;32;20079;-93
2020/12/18 03:20:42;;;;;;;5.85;0.90;;;;;;;;;;4324321;33;20102;-94
2020/12/18 03:23:27;;;;;;;2.87;0.70;;;;;;;;;;4318627;32;20149;-92
2020/12/18 03:26:09;;;;;;;1.75;0.82;;;;;;;;;;4338787;32;20107;-93
2020/12/18 03:28:53;;;;;;;0.85;0.65;;;;;;;;;;4310587;33;20090;-92
2020/12/18 03:31:22;;;;;;;1.55;0.88;;;;;;;;;;4307750;33;20095;-92
2020/12/18 03:34:00;;;;;;;3.90;0.80;;;;;;;;;;4316630;33;20079;-94
2020/12/18 03:36:29;;;;;;;1.02;0.60;;;;;;;;;;4324343;32;20121;-94
2020/12/18 03:39:07;;;;;;;2.10;0.68;;;;;;;;;;4330959;33;20679;-93
2020/12/18 03:41:39;;;;;;;3.22;0.98;;;;;;;;;;4321881;33;20496;-95
2020/12/18 03:44:07;;;;;;;2.83;0.70;;;;;;;;;;4314835;33;20096;-93
2020/12/18 03:46:41;;;;;;;1.85;0.80;;;;;;;;;;4328646;33;20146;-94
2020/12/18 03:49:17;;;;;;;0.37;0.35;;;;;;;;;;4312334;33;20682;-94
2020/12/18 03:52:00;;;;;;;;;;;;;;;;;;4335604;33;20241;-92
2020/12/18 03:54:51;;;;;;;2.25;1.10;;;;;;;;;;4335749;33;19988;-94
2020/12/18 03:57:34;;;;;;;0.70;0.50;;;;;;;;;;4346328;33;20103;-94
2020/12/18 04:00:09;;;;;;;0.60;0.60;;;;;;;;;;4344990;33;20056;-94
2020/12/18 04:02:52;;;;;;;0.43;0.43;;;;;;;;;;4345976;33;20063;-93
2020/12/18 04:05:41;;;;;;;2.72;1.17;;;;;;;;;;4342594;33;20746;-93
2020/12/18 04:08:10;;;;;;;2.97;0.60;;;;;;;;;;4328556;33;20072;-94
2020/12/18 04:10:44;;;;;;;3.08;1.08;;;;;;;;;;4338768;33;20099;-92
2020/12/18 04:13:19;;;;;;;2.72;0.55;;;;;;;;;;4327477;33;20056;-91
2020/12/18 04:15:59;;;;;;;1.65;0.80;;;;;;;;;;4329474;33;20167;-95
2020/12/18 04:18:30;;;;;;;1.92;0.50;;;;;;;;;;4327062;33;20076;-93
2020/12/18 04:21:01;;;;;;;2.62;1.17;;;;;;;;;;4326580;33;20056;-93
2020/12/18 04:23:38;;;;;;;0.30;0.30;;;;;;;;;;4339705;33;20067;-95
2020/12/18 04:26:20;;;;;;;1.05;0.65;;;;;;;;;;4331814;33;20142;-95
2020/12/18 04:28:52;;;;;;;0.37;0.37;;;;;;;;;;4328310;33;20072;-93
2020/12/18 04:31:25;;;;;;;0.65;0.65;;;;;;;;;;4340028;32;20107;-94
2020/12/18 04:34:00;;;;;;;0.43;0.40;;;;;;;;;;4329490;33;20071;-94
2020/12/18 04:36:33;;;;;;;1.02;0.70;;;;;;;;;;4329526;33;20084;-94
2020/12/18 04:39:11;;;;;;;3.70;1.30;;;;;;;;;;4325833;33;20423;-94
2020/12/18 04:41:51;;;;;;;6.93;1.45;;;;;;;;;;4336159;33;20068;-94
2020/12/18 04:44:28;;;;;;;2.37;0.90;;;;;;;;;;4332896;33;20055;-94
2020/12/18 04:47:00;;;;;;;1.12;0.82;;;;;;;;;;4331701;33;20084;-93
2020/12/18 04:49:42;;;;;;;3.03;0.95;;;;;;;;;;4333640;33;20115;-96
2020/12/18 04:52:16;;;;;;;1.52;0.85;;;;;;;;;;4329175;33;20099;-95
2020/12/18 04:54:48;;;;;;;2.00;0.88;;;;;;;;;;4328559;33;20108;-93
2020/12/18 04:57:23;;;;;;;3.40;0.68;;;;;;;;;;4315310;33;20103;-95
2020/12/18 04:59:55;;;;;;;1.17;0.47;;;;;;;;;;4328019;33;20163;-92
2020/12/18 05:02:28;;;;;;;4.78;0.82;;;;;;;;;;4328524;33;20750;-95
2020/12/18 05:05:10;;;;;;;1.05;0.57;;;;;;;;;;4327423;33;20156;-95
2020/12/18 05:07:50;;;;;;;0.75;0.40;;;;;;;;;;4326299;33;20275;-93
2020/12/18 05:10:29;;;;;;;1.30;0.47;;;;;;;;;;4324817;33;20717;-94
2020/12/18 05:13:00;;;;;;;2.53;1.27;;;;;;;;;;4331028;33;20067;-94
2020/12/18 05:15:36;;;;;;;0.52;0.50;;;;;;;;;;4332049;33;20082;-96
2020/12/18 05:18:08;;;;;;;1.80;0.55;;;;;;;;;;4334011;33;20541;-96
2020/12/18 05:20:44;;;;;;;8.77;1.00;;;;;;;;;;4330963;33;20135;-93
2020/12/18 05:23:20;;;;;;;0.50;0.45;;;;;;;;;;4331329;33;20078;-94
2020/12/18 05:25:54;;;;;;;7.32;0.80;;;;;;;;;;4331685;33;20056;-96
2020/12/18 05:28:43;;;;;;;1.40;0.43;;;;;;;;;;4325890;33;20060;-94
2020/12/18 05:31:19;;;;;;;1.02;0.50;;;;;;;;;;4336735;33;20123;-94
2020/12/18 05:33:55;;;;;;;3.10;0.88;;;;;;;;;;4318263;33;20139;-93
2020/12/18 05:36:30;;;;;;;0.57;0.47;;;;;;;;;;4335137;33;20079;-95
2020/12/18 05:39:00;;;;;;;0.82;0.73;;;;;;;;;;4328468;33;20127;-94
2020/12/18 05:41:32;;;;;;;1.05;0.68;;;;;;;;;;4318550;33;20107;-92
2020/12/18 05:44:06;;;;;;;2.35;0.57;;;;;;;;;;4315794;33;20446;-95
2020/12/18 05:46:41;;;;;;;1.58;0.55;;;;;;;;;;4325397;33;20106;-93
2020/12/18 05:49:09;;;;;;;0.68;0.68;;;;;;;;;;4320139;33;20198;-93
2020/12/18 05:51:50;;;;;;;0.50;0.50;;;;;;;;;;4343642;33;20052;-95
2020/12/18 05:54:38;;;;;;;1.20;0.50;;;;;;;;;;4319815;33;20059;-94
2020/12/18 05:57:11;;;;;;;2.37;0.77;;;;;;;;;;4330742;33;20453;-94
2020/12/18 05:59:45;;;;;;;3.47;1.20;;;;;;;;;;4330249;33;20418;-95
2020/12/18 06:02:18;;;;;;;7.12;1.20;;;;;;;;;;4331363;33;20064;-95
2020/12/18 06:04:52;;;;;;;1.65;1.08;;;;;;;;;;4326543;33;20083;-93
2020/12/18 06:07:21;;;;;;;0.55;0.55;;;;;;;;;;4326823;33;20061;-95
2020/12/18 06:09:56;;;;;;;1.33;0.95;;;;;;;;;;4332750;33;20095;-95
2020/12/18 06:12:32;;;;;;;5.45;0.65;;;;;;;;;;4329058;33;20131;-94
2020/12/18 06:15:04;;;;;;;1.08;0.90;;;;;;;;;;4337747;33;20048;-93
2020/12/18 06:17:36;;;;;;;1.25;0.65;;;;;;;;;;4328085;33;20089;-96
2020/12/18 06:20:07;;;;;;;0.43;0.43;;;;;;;;;;4330402;33;20103;-95
2020/12/18 06:22:43;;;;;;;1.02;0.45;;;;;;;;;;4325153;33;20067;-93
2020/12/18 06:25:17;;;;;;;3.28;0.77;;;;;;;;;;4324553;33;20071;-95
2020/12/18 06:28:01;;;;;;;0.60;0.60;;;;;;;;;;4331425;33;20044;-94
2020/12/18 06:30:35;;;;;;;1.27;0.62;;;;;;;;;;4328646;33;20480;-95
2020/12/18 06:33:09;;;;;;;0.50;0.50;;;;;;;;;;4324520;33;20067;-94
2020/12/18 06:35:46;;;;;;;2.95;0.57;;;;;;;;;;4327221;33;20127;-94
2020/12/18 06:38:20;;;;;;;3.30;0.70;;;;;;;;;;4312689;33;20086;-94
2020/12/18 06:40:49;;;;;;;0.80;0.80;;;;;;;;;;4326256;33;20064;-93
2020/12/18 06:43:34;;;;;;;2.15;1.67;;;;;;;;;;4336142;33;20085;-93
2020/12/18 06:46:07;;;;;;;2.40;2.30;;;;;;;;;;4323831;33;20469;-94
2020/12/18 06:48:49;;;;;;;3.03;2.92;;;;;;;;;;4336007;33;20056;-94
2020/12/18 06:51:25;;;;;;;4.78;3.20;;;;;;;;;;4322299;33;20072;-92
2020/12/18 06:54:09;;;;;;;3.55;3.35;;;;;;;;;;4340455;33;21437;-95
2020/12/18 06:56:47;;;;;;;4.25;3.80;;;;;;;;;;4325959;33;20099;-95
2020/12/18 06:59:23;;;;;;;11.57;3.40;;;;;;;;;;4329362;33;20083;-95
2020/12/18 07:01:51;;;;;;;3.80;3.60;;;;;;;;;;4337403;33;20100;-95
2020/12/18 07:04:28;;;;;;;3.50;3.30;;;;;;;;;;4333613;33;20399;-94
2020/12/18 07:07:21;;;;;;;3.42;3.22;;;;;;;;;;4337353;32;20289;-94
2020/12/18 07:09:54;;;;;;;4.10;2.83;;;;;;;;;;4323279;33;20088;-94
2020/12/18 07:12:26;;;;;;;4.12;2.55;;;;;;;;;;4322268;33;20040;-94
2020/12/18 07:14:54;;;;;;;2.47;2.37;;;;;;;;;;4335000;33;20071;-95
2020/12/18 07:17:28;;;;;;;2.50;2.30;;;;;;;;;;4325712;33;20068;-94
2020/12/18 07:20:07;;;;;;;2.50;2.30;;;;;;;;;;4335043;32;20094;-95
2020/12/18 07:22:48;;;;;;;3.67;3.42;;;;;;;;;;4313205;33;20064;-95
2020/12/18 07:25:16;;;;;;;8.52;3.55;;;;;;;;;;4323929;33;20136;-95
2020/12/18 07:27:48;;;;;;;17.48;2.55;;;;;;;;;;4326564;33;20053;-95
2020/12/18 07:30:17;;;;;;;1.73;1.62;;;;;;;;;;4337484;33;20061;-94
2020/12/18 07:32:50;;;;;;;5.97;3.95;;;;;;;;;;4313003;33;20111;-95
2020/12/18 07:35:21;;;;;;;4.00;3.80;;;;;;;;;;4313601;33;20172;-93
2020/12/18 07:37:49;;;;;;;4.43;4.22;;;;;;;;;;4312545;33;20151;-93
2020/12/18 07:40:25;;;;;;;5.30;5.00;;;;;;;;;;4319176;33;20593;-92
2020/12/18 07:42:53;;;;;;;5.35;5.05;;;;;;;;;;4323696;33;20383;-94
2020/12/18 07:45:21;;;;;;;6.60;6.18;;;;;;;;;;4309843;33;20066;-92
2020/12/18 07:47:52;;;;;;;5.25;4.45;;;;;;;;;;4322884;33;20106;-92
2020/12/18 07:50:20;;;;;;;6.03;5.60;;;;;;;;;;4320171;33;20065;-94
2020/12/18 07:52:48;;;;;;;9.00;5.18;;;;;;;;;;4321971;33;20103;-93
2020/12/18 07:55:30;;;;;;;7.22;5.82;;;;;;;;;;4322694;33;20082;-92
2020/12/18 07:57:59;;;;;;;6.65;6.12;;;;;;;;;;4320475;33;20072;-94
2020/12/18 08:00:30;;;;;;;16.95;3.40;;;;;;;;;;4321832;33;20083;-93
2020/12/18 08:03:07;;;;;;;6.03;1.90;;;;;;;;;;4323717;33;20461;-93
2020/12/18 08:05:35;;;;;;;2.50;1.80;;;;;;;;;;4324979;33;20461;-93
2020/12/18 08:08:06;;;;;;;1.90;1.25;;;;;;;;;;4321886;33;20112;-93
2020/12/18 08:10:40;;;;;;;0.60;0.55;;;;;;;;;;4321608;33;20112;-94
2020/12/18 08:13:11;;;;;;;4.43;3.58;;;;;;;;;;4342874;33;20056;-95
2020/12/18 08:15:40;;;;;;;2.33;0.80;;;;;;;;;;4325889;33;20056;-95
2020/12/18 08:18:22;;;;;;;6.07;5.40;;;;;;;;;;4330736;33;20040;-93
2020/12/18 08:20:50;;;;;;;4.05;2.58;;;;;;;;;;4343635;33;20095;-92
2020/12/18 08:23:30;;;;;;;3.78;2.08;;;;;;;;;;4351125;33;20028;-94
2020/12/18 08:26:13;;;;;;;3.55;3.10;;;;;;;;;;4340591;33;20067;-91
2020/12/18 08:28:43;;;;;;;2.80;2.58;;;;;;;;;;4342368;33;20131;-93
2020/12/18 08:31:12;;;;;;;2.53;2.05;;;;;;;;;;4336046;33;20099;-92
2020/12/18 08:34:01;;;;;;;2.83;1.95;;;;;;;;;;4324257;33;20445;-92
2020/12/18 08:36:29;;;;;;;2.03;1.00;;;;;;;;;;4331640;33;20107;-94
2020/12/18 08:39:05;;;;;;;1.37;1.20;;;;;;;;;;4335264;33;20129;-93
2020/12/18 08:41:53;;;;;;;3.03;0.73;;;;;;;;;;4339205;33;20040;-94
2020/12/18 08:44:23;;;;;;;3.05;1.80;;;;;;;;;;4322873;33;20647;-93
2020/12/18 08:46:51;;;;;;;2.92;1.15;;;;;;;;;;4326250;33;20480;-93
2020/12/18 08:49:24;;;;;;;4.22;1.05;;;;;;;;;;4328140;33;20060;-94
2020/12/18 08:51:57;;;;;;;2.53;0.93;;;;;;;;;;4327789;33;20098;-92
2020/12/18 08:54:27;;;;;;;0.55;0.55;;;;;;;;;;4328675;33;20056;-93
2020/12/18 08:57:11;;;;;;;1.75;0.82;;;;;;;;;;4316190;33;20773;-92
2020/12/18 08:59:40;;;;;;;5.75;2.30;;;;;;;;;;4317471;33;20070;-94
2020/12/18 09:02:15;;;;;;;9.07;4.55;;;;;;;;;;4324757;33;20087;-94
2020/12/18 09:04:44;;;;;;;2.90;2.03;;;;;;;;;;4337896;32;20074;-92
2020/12/18 09:07:17;;;;;;;6.10;4.90;;;;;;;;;;4337129;33;20118;-95
2020/12/18 09:09:54;;;;;;;4.32;3.80;;;;;;;;;;4336675;32;20107;-93
2020/12/18 09:12:25;;;;;;;4.15;3.85;;;;;;;;;;4335981;33;20096;-93
2020/12/18 09:14:54;;;;;;;3.58;3.28;;;;;;;;;;4325515;33;20390;-93
2020/12/18 09:17:22;;;;;;;4.00;3.80;;;;;;;;;;4337363;33;20089;-93
2020/12/18 09:19:50;;;;;;;3.90;2.37;;;;;;;;;;4337962;33;20475;-94
2020/12/18 09:22:21;;;;;;;5.07;3.17;;;;;;;;;;4332740;33;20370;-93
2020/12/18 09:25:01;;;;;;;3.37;3.17;;;;;;;;;;4328523;33;20139;-94
2020/12/18 09:27:30;;;;;;;3.33;3.12;;;;;;;;;;4336361;32;20056;-92
2020/12/18 09:30:00;;;;;;;4.90;4.05;;;;;;;;;;4333047;33;20126;-93
2020/12/18 09:32:28;;;;;;;4.55;1.95;;;;;;;;;;4313638;33;20059;-95
2020/12/18 09:35:01;;;;;;;3.70;2.83;;;;;;;;;;4311398;33;20130;-95
2020/12/18 09:37:33;;;;;;;3.95;3.65;;;;;;;;;;4338457;33;20060;-95
2020/12/18 09:40:02;;;;;;;5.05;3.50;;;;;;;;;;4334074;32;20115;-96
2020/12/18 09:42:31;;;;;;;4.50;3.12;;;;;;;;;;4325125;33;20136;-94
2020/12/18 09:45:04;;;;;;;3.25;2.90;;;;;;;;;;4323444;33;20469;-94
2020/12/18 09:47:32;;;;;;;3.45;3.15;;;;;;;;;;4337174;33;20106;-93
2020/12/18 09:50:00;;;;;;;3.47;2.90;;;;;;;;;;4325590;33;20096;-94
2020/12/18 09:52:29;;;;;;;8.60;3.03;;;;;;;;;;4335677;33;20059;-93
2020/12/18 09:54:57;;;;;;;3.40;3.10;;;;;;;;;;4335915;33;20104;-93
2020/12/18 09:57:31;;;;;;;4.15;3.15;;;;;;;;;;4325561;33;20119;-96
2020/12/18 10:00:06;;;;;;;3.67;3.37;;;;;;;;;;4313613;33;20102;-96
2020/12/18 10:02:41;;;;;;;3.40;3.20;;;;;;;;;;4318837;33;20110;-96
2020/12/18 10:05:12;;;;;;;3.62;3.42;;;;;;;;;;4329291;33;20120;-94
2020/12/18 10:07:40;;;;;;;2.75;2.08;;;;;;;;;;4330135;33;20644;-96
2020/12/18 10:10:13;;;;;;;3.67;3.33;;;;;;;;;;4340284;33;20114;-96
2020/12/18 10:12:42;;;;;;;3.85;3.45;;;;;;;;;;4329497;33;20096;-96
2020/12/18 10:15:21;;;;;;;5.80;3.92;;;;;;;;;;4345058;33;20096;-94
2020/12/18 10:17:50;;;;;;;5.35;3.20;;;;;;;;;;4325876;33;20420;-92
2020/12/18 10:20:19;;;;;;;2.70;2.60;;;;;;;;;;4338150;33;20067;-93
2020/12/18 10:22:49;;;;;;;4.90;3.97;;;;;;;;;;4325916;33;20111;-93
2020/12/18 10:25:18;;;;;;;5.70;4.47;;;;;;;;;;4340793;33;20485;-93
2020/12/18 10:27:46;;;;;;;2.40;0.90;;;;;;;;;;4338698;33;20115;-93
2020/12/18 10:30:15;;;;;;;2.45;0.98;;;;;;;;;;4339053;33;20051;-93
2020/12/18 10:32:45;;;;;;;6.90;4.20;;;;;;;;;;4324933;33;20118;-93
2020/12/18 10:35:14;;;;;;;5.95;4.68;;;;;;;;;;4338143;33;20052;-92
2020/12/18 10:37:45;;;;;;;6.93;6.30;;;;;;;;;;4338973;33;20048;-92
2020/12/18 10:40:14;;;;;;;7.12;4.53;;;;;;;;;;4335619;33;20456;-91
2020/12/18 10:42:43;;;;;;;3.97;3.67;;;;;;;;;;4334368;33;20052;-94
2020/12/18 10:45:11;;;;;;;5.15;4.95;;;;;;;;;;4333962;33;20354;-92
2020/12/18 10:47:41;;;;;;;7.57;4.85;;;;;;;;;;4321786;33;20137;-91
2020/12/18 10:50:12;;;;;;;4.72;4.32;;;;;;;;;;4335728;33;20071;-93
2020/12/18 10:52:43;;;;;;;3.60;1.20;;;;;;;;;;4336585;33;20056;-93
2020/12/18 10:55:11;;;;;;;6.45;3.78;;;;;;;;;;4339428;33;20523;-93
2020/12/18 10:57:40;;;;;;;5.10;4.70;;;;;;;;;;4338625;33;20077;-92
2020/12/18 11:00:11;;;;;;;5.47;5.07;;;;;;;;;;4337790;33;20048;-93
2020/12/18 11:02:41;;;;;;;5.85;5.35;;;;;;;;;;4335714;33;20049;-96
2020/12/18 11:05:12;;;;;;;4.12;3.55;;;;;;;;;;4327911;33;20075;-96
2020/12/18 11:07:41;;;;;;;4.65;3.95;;;;;;;;;;4336727;33;20051;-93
2020/12/18 11:10:09;;;;;;;4.37;2.55;;;;;;;;;;4325937;33;20510;-92
2020/12/18 11:12:38;;;;;;;2.45;1.33;;;;;;;;;;4318625;33;20070;-94
2020/12/18 11:15:06;;;;;;;4.20;0.80;;;;;;;;;;4323305;33;20111;-95
2020/12/18 11:17:34;;;;;;;2.08;0.80;;;;;;;;;;4323727;33;20111;-93
2020/12/18 11:20:05;;;;;;;3.17;1.23;;;;;;;;;;4333586;33;20133;-94
2020/12/18 11:22:33;;;;;;;4.25;1.00;;;;;;;;;;4324012;33;20161;-94
2020/12/18 11:25:04;;;;;;;7.03;2.33;;;;;;;;;;4312262;33;20127;-95
2020/12/18 11:27:33;;;;;;;2.47;1.10;;;;;;;;;;4322773;33;20071;-95
2020/12/18 11:30:01;;;;;;;3.30;1.12;;;;;;;;;;4321476;33;20053;-94
2020/12/18 11:32:39;;;;;;;4.87;1.50;;;;;;;;;;4324077;33;20952;-96
2020/12/18 11:35:12;;;;;;;5.37;1.48;;;;;;;;;;4314211;33;20083;-95
2020/12/18 11:37:45;;;;;;;3.17;0.82;;;;;;;;;;4336984;33;20056;-94
2020/12/18 11:40:14;;;;;;;4.78;0.95;;;;;;;;;;4325354;33;20049;-95
2020/12/18 11:42:44;;;;;;;7.32;1.25;;;;;;;;;;4323385;33;20056;-92
2020/12/18 11:45:13;;;;;;;3.75;1.10;;;;;;;;;;4321076;33;20095;-91
2020/12/18 11:47:42;;;;;;;13.65;1.80;;;;;;;;;;4331858;33;20075;-91
2020/12/18 11:50:11;;;;;;;4.00;1.20;;;;;;;;;;4320875;33;20057;-91
2020/12/18 11:52:40;;;;;;;2.25;0.95;;;;;;;;;;4320664;33;20056;-91
2020/12/18 11:55:08;;;;;;;5.65;1.10;;;;;;;;;;4322405;33;20072;-92
2020/12/18 11:57:44;;;;;;;7.25;1.25;;;;;;;;;;4323696;33;20064;-92
2020/12/18 12:00:12;;;;;;;1.62;0.70;;;;;;;;;;4322272;33;20041;-93
2020/12/18 12:02:41;;;;;;;6.47;1.70;;;;;;;;;;4318668;33;20551;-93
2020/12/18 12:05:09;;;;;;;14.52;1.20;;;;;;;;;;4322229;33;20397;-93
2020/12/18 12:07:38;;;;;;;10.63;1.30;;;;;;;;;;4323165;33;20118;-91
2020/12/18 12:10:07;;;;;;;5.82;1.05;;;;;;;;;;4323010;33;20111;-92
2020/12/18 12:12:35;;;;;;;7.40;1.42;;;;;;;;;;4321573;33;20138;-91
2020/12/18 12:15:06;;;;;;;7.00;1.08;;;;;;;;;;4323880;33;20137;-90
2020/12/18 12:17:35;;;;;;;4.65;1.17;;;;;;;;;;4311670;33;20491;-92
2020/12/18 12:20:04;;;;;;;9.27;1.15;;;;;;;;;;4326371;33;20064;-91
2020/12/18 12:22:34;;;;;;;4.07;1.10;;;;;;;;;;4310217;33;20107;-92
2020/12/18 12:25:03;;;;;;;4.72;1.33;;;;;;;;;;4332340;33;20107;-92
2020/12/18 12:27:31;;;;;;;7.40;1.37;;;;;;;;;;4331696;33;20097;-91
2020/12/18 12:30:01;;;;;;;3.00;1.12;;;;;;;;;;4317164;33;20628;-92
2020/12/18 12:32:30;;;;;;;4.90;0.93;;;;;;;;;;4313297;33;20459;-91
2020/12/18 12:34:59;;;;;;;3.47;1.12;;;;;;;;;;4320481;33;20056;-92
2020/12/18 12:37:27;;;;;;;1.92;1.10;;;;;;;;;;4311127;33;20123;-92
2020/12/18 12:39:56;;;;;;;3.05;1.10;;;;;;;;;;4323378;33;20155;-94
2020/12/18 12:42:28;;;;;;;10.38;1.08;;;;;;;;;;4338234;33;20496;-93
2020/12/18 12:44:58;;;;;;;4.55;1.20;;;;;;;;;;4325064;33;20449;-91
2020/12/18 12:47:28;;;;;;;7.00;1.65;;;;;;;;;;4326280;33;20064;-92
2020/12/18 12:49:57;;;;;;;2.97;0.90;;;;;;;;;;4322283;33;20067;-90
2020/12/18 12:52:25;;;;;;;4.47;1.30;;;;;;;;;;4338090;33;20557;-92
2020/12/18 12:54:58;;;;;;;7.85;1.20;;;;;;;;;;4334473;33;20068;-91
2020/12/18 12:57:29;;;;;;;2.47;1.15;;;;;;;;;;4346661;33;20106;-92
2020/12/18 13:00:06;;;;;;;3.30;0.90;;;;;;;;;;4333571;33;20088;-93
2020/12/18 13:02:34;;;;;;;8.25;1.30;;;;;;;;;;4327039;33;20056;-92
2020/12/18 13:05:03;;;;;;;4.57;1.08;;;;;;;;;;4324976;33;20060;-92
2020/12/18 13:07:36;;;;;;;5.15;1.02;;;;;;;;;;4325391;33;20110;-93
2020/12/18 13:10:06;;;;;;;8.48;1.40;;;;;;;;;;4337179;33;20103;-91
2020/12/18 13:12:34;;;;;;;1.17;0.80;;;;;;;;;;4313398;33;20383;-92
2020/12/18 13:15:04;;;;;;;5.15;0.90;;;;;;;;;;4326010;33;20130;-91
2020/12/18 13:17:32;;;;;;;7.35;1.40;;;;;;;;;;4318668;33;20075;-93
2020/12/18 13:20:01;;;;;;;3.00;0.88;;;;;;;;;;4327014;33;20617;-92
2020/12/18 13:22:29;;;;;;;4.25;1.02;;;;;;;;;;4322314;33;20114;-92
2020/12/18 13:24:57;;;;;;;9.77;1.37;;;;;;;;;;4326931;33;20052;-91
2020/12/18 13:27:25;;;;;;;3.08;0.80;;;;;;;;;;4326908;33;20494;-93
2020/12/18 13:29:54;;;;;;;2.05;0.80;;;;;;;;;;4323209;33;20056;-93
2020/12/18 13:32:22;;;;;;;4.80;1.17;;;;;;;;;;4322929;33;20726;-93
2020/12/18 13:34:51;;;;;;;4.78;0.95;;;;;;;;;;4314066;33;20815;-94
2020/12/18 13:37:19;;;;;;;3.70;1.48;;;;;;;;;;4324902;33;20072;-93
2020/12/18 13:39:47;;;;;;;6.70;1.08;;;;;;;;;;4323917;33;20145;-94
2020/12/18 13:42:18;;;;;;;3.92;1.45;;;;;;;;;;4320940;33;20098;-90
2020/12/18 13:44:50;;;;;;;4.55;1.10;;;;;;;;;;4332188;33;20124;-90
2020/12/18 13:47:18;;;;;;;2.92;0.80;;;;;;;;;;4322051;33;20519;-93
2020/12/18 13:49:48;;;;;;;2.80;0.80;;;;;;;;;;4324556;33;20097;-92
2020/12/18 13:52:16;;;;;;;4.03;1.10;;;;;;;;;;4324225;33;20141;-91
2020/12/18 13:54:44;;;;;;;5.68;1.00;;;;;;;;;;4324502;33;20484;-92
2020/12/18 13:57:12;;;;;;;0.52;0.52;;;;;;;;;;4322089;33;20077;-93
2020/12/18 13:59:42;;;;;;;6.80;1.20;;;;;;;;;;4320703;33;20800;-92
2020/12/18 14:02:11;;;;;;;7.50;1.10;;;;;;;;;;4309598;33;20102;-94
2020/12/18 14:04:40;;;;;;;2.53;0.52;;;;;;;;;;4314393;33;20446;-96
2020/12/18 14:07:08;;;;;;;4.37;0.77;;;;;;;;;;4329350;33;20091;-96
2020/12/18 14:09:37;;;;;;;1.05;0.60;;;;;;;;;;4331816;33;20060;-95
2020/12/18 14:12:05;;;;;;;2.20;1.12;;;;;;;;;;4309127;33;20056;-93
2020/12/18 14:14:34;;;;;;;1.67;0.85;;;;;;;;;;4333923;32;20146;-91
2020/12/18 14:17:02;;;;;;;2.70;0.88;;;;;;;;;;4318915;33;20060;-92
2020/12/18 14:19:31;;;;;;;0.62;0.50;;;;;;;;;;4311688;33;20068;-92
2020/12/18 14:22:02;;;;;;;2.45;0.52;;;;;;;;;;4334784;33;20169;-92
2020/12/18 14:24:30;;;;;;;3.72;0.93;;;;;;;;;;4334647;33;20518;-92
2020/12/18 14:27:02;;;;;;;0.98;0.60;;;;;;;;;;4322752;33;20095;-91
2020/12/18 14:29:31;;;;;;;1.30;0.75;;;;;;;;;;4323011;33;20103;-91
2020/12/18 14:31:59;;;;;;;2.28;0.70;;;;;;;;;;4323159;33;20134;-92
2020/12/18 14:34:28;;;;;;;3.92;0.90;;;;;;;;;;4315766;33;20087;-92
2020/12/18 14:36:56;;;;;;;2.05;0.57;;;;;;;;;;4324407;33;20092;-91
2020/12/18 14:39:34;;;;;;;2.92;0.77;;;;;;;;;;4320930;33;20069;-93
2020/12/18 14:42:03;;;;;;;2.35;0.52;;;;;;;;;;4322671;33;20114;-92
2020/12/18 14:44:31;;;;;;;3.03;0.82;;;;;;;;;;4322163;33;20809;-92
2020/12/18 14:47:00;;;;;;;7.18;0.60;;;;;;;;;;4335948;33;20064;-91
2020/12/18 14:49:28;;;;;;;4.15;0.60;;;;;;;;;;4309667;33;20162;-91
2020/12/18 14:51:56;;;;;;;4.05;0.65;;;;;;;;;;4312094;33;20100;-94
2020/12/18 14:54:25;;;;;;;0.65;0.47;;;;;;;;;;4323097;33;20158;-93
2020/12/18 14:56:53;;;;;;;1.05;0.68;;;;;;;;;;4320990;33;20100;-92
2020/12/18 14:59:22;;;;;;;2.65;0.52;;;;;;;;;;4324853;33;20116;-93
2020/12/18 15:01:50;;;;;;;5.65;0.98;;;;;;;;;;4323745;33;20090;-93
2020/12/18 15:04:18;;;;;;;4.75;0.90;;;;;;;;;;4311333;33;20064;-92
2020/12/18 15:06:50;;;;;;;5.35;0.90;;;;;;;;;;4322426;33;20096;-92
2020/12/18 15:09:18;;;;;;;2.10;0.93;;;;;;;;;;4320140;33;20086;-92